Ekin, Indiana
Current Conditions -  °F | °C
As of 12:35 AM on Thursday 27 Nov 2014 (Local Time) from KTYQ Reporting Station
Overcast Overcast  
Wind Chill: 19°   Ceiling: 1800
Heat Index: 28°   Visibility: 10mi
Dew Point: 22°   Wind: 9mph
Humidity: 76%   Direction: 10°N
Pressure: 30.11"   Gusts: NA
Location:  40.1832°N, 85.9359°W
Report Text: KTYQ 270535Z AUTO 01008KT 10SM OVC018 M02/M06 A3011 RMK AO2 T10211058
Loading
Personal Weather Stations






























Interactive Weather Map New forecast layout! Learn more

10-Day Weather Forecast

Advertisements
Track Severe Weather on mobile